Time;durP1;ratioP1;P1;durP2;ratioP2;P2;SDS_P1;SDS_P2;PMS_P1;PMS_P2;Temp;Humidity;BMP_temperature;BMP_pressure;BME280_temperature;BME280_humidity;BME280_pressure;Samples;Min_cycle;Max_cycle;Signal;HPM_P1;HPM_P2
2021/09/15 00:00:15;;;;;;;8.85;3.20;;;;;;;12.19;100.00;101654.72;4761537;30;20050;-80
2021/09/15 00:02:40;;;;;;;8.80;3.08;;;;;;;12.20;100.00;101651.81;4773292;30;20035;-79
2021/09/15 00:05:08;;;;;;;9.32;3.40;;;;;;;12.23;100.00;101661.41;4772765;30;20462;-79
2021/09/15 00:07:34;;;;;;;7.18;2.97;;;;;;;12.23;100.00;101656.00;4790104;29;20046;-80
2021/09/15 00:10:00;;;;;;;9.68;3.75;;;;;;;12.23;100.00;101646.06;4788398;29;20050;-79
2021/09/15 00:12:26;;;;;;;8.68;3.10;;;;;;;12.22;100.00;101644.38;4789966;30;20035;-80
2021/09/15 00:14:53;;;;;;;8.68;3.45;;;;;;;12.20;100.00;101632.09;4804457;29;20067;-80
2021/09/15 00:17:18;;;;;;;10.65;3.33;;;;;;;12.21;100.00;101637.31;4776185;30;20455;-81
2021/09/15 00:19:45;;;;;;;10.50;3.20;;;;;;;12.18;100.00;101637.69;4774099;30;20065;-80
2021/09/15 00:22:11;;;;;;;6.20;2.78;;;;;;;12.23;100.00;101647.91;4791394;30;20046;-80
2021/09/15 00:24:36;;;;;;;8.70;2.83;;;;;;;12.20;100.00;101638.34;4788824;29;20039;-81
2021/09/15 00:27:02;;;;;;;8.45;3.28;;;;;;;11.94;100.00;101608.34;4790962;29;20031;-80
2021/09/15 00:29:27;;;;;;;10.20;3.45;;;;;;;12.14;100.00;101643.66;4788517;30;20425;-81
2021/09/15 00:31:54;;;;;;;11.13;3.10;;;;;;;12.10;100.00;101647.75;4782566;30;20491;-80
2021/09/15 00:34:19;;;;;;;9.55;3.17;;;;;;;12.06;100.00;101641.91;4789188;29;20043;-80
2021/09/15 00:36:45;;;;;;;7.57;3.03;;;;;;;12.03;100.00;101652.25;4786611;30;20054;-81
2021/09/15 00:39:10;;;;;;;7.38;2.75;;;;;;;11.98;100.00;101647.38;4789888;29;20079;-80
2021/09/15 00:41:36;;;;;;;9.32;3.20;;;;;;;11.92;100.00;101645.44;4773327;30;20035;-81
2021/09/15 00:44:07;;;;;;;8.45;3.03;;;;;;;11.77;100.00;101627.38;4781628;30;20467;-81
2021/09/15 00:46:34;;;;;;;7.63;3.00;;;;;;;11.83;100.00;101643.84;4788742;30;20080;-80
2021/09/15 00:48:59;;;;;;;10.13;3.10;;;;;;;11.61;100.00;101616.78;4774010;30;20215;-80
2021/09/15 00:51:26;;;;;;;8.52;3.33;;;;;;;11.74;100.00;101646.63;4759174;30;20073;-80
2021/09/15 00:53:52;;;;;;;11.98;3.30;;;;;;;11.66;100.00;101641.34;4774334;29;20043;-80
2021/09/15 00:56:17;;;;;;;8.32;3.22;;;;;;;11.62;100.00;101642.75;4788773;30;20023;-81
2021/09/15 00:58:43;;;;;;;8.20;3.20;;;;;;;11.61;100.00;101640.22;4803408;29;20118;-81
2021/09/15 01:01:08;;;;;;;9.70;3.50;;;;;;;11.45;100.00;101622.34;4772022;30;20054;-80
2021/09/15 01:03:34;;;;;;;9.32;3.55;;;;;;;11.51;100.00;101649.41;4775406;30;20051;-80
2021/09/15 01:05:59;;;;;;;6.32;2.80;;;;;;;11.47;100.00;101644.59;4787924;30;20035;-81
2021/09/15 01:08:25;;;;;;;7.57;3.22;;;;;;;11.40;100.00;101639.09;4755350;30;20036;-80
2021/09/15 01:10:54;;;;;;;10.20;3.50;;;;;;;11.34;100.00;101641.69;4769552;30;20067;-81
2021/09/15 01:13:20;;;;;;;10.10;3.33;;;;;;;11.33;100.00;101640.84;4771437;30;20115;-81
2021/09/15 01:15:45;;;;;;;9.90;3.72;;;;;;;11.06;100.00;101612.66;4782829;30;20035;-80
2021/09/15 01:18:16;;;;;;;10.73;3.53;;;;;;;11.19;100.00;101641.63;4777251;30;20382;-81
2021/09/15 01:20:45;;;;;;;8.00;3.35;;;;;;;11.14;100.00;101638.69;4788851;29;20039;-80
2021/09/15 01:23:11;;;;;;;6.35;3.30;;;;;;;11.09;100.00;101643.75;4785733;29;20039;-80
2021/09/15 01:25:36;;;;;;;8.90;3.88;;;;;;;11.02;100.00;101643.66;4772572;30;20047;-80
2021/09/15 01:28:02;;;;;;;8.02;3.40;;;;;;;11.04;100.00;101644.31;4787703;30;20035;-81
2021/09/15 01:30:27;;;;;;;7.93;3.70;;;;;;;10.85;100.00;101625.97;4792808;29;20056;-80
2021/09/15 01:32:53;;;;;;;11.32;3.80;;;;;;;11.00;100.00;101651.91;4786349;30;20066;-80
2021/09/15 01:35:18;;;;;;;9.27;3.63;;;;;;;10.97;100.00;101649.59;4794559;30;20070;-80
2021/09/15 01:37:44;;;;;;;9.25;4.05;;;;;;;10.97;100.00;101643.38;4797845;30;20042;-80
2021/09/15 01:40:10;;;;;;;11.52;3.95;;;;;;;10.98;100.00;101642.34;4797734;30;20054;-81
2021/09/15 01:42:36;;;;;;;8.40;4.03;;;;;;;11.04;100.00;101655.09;4791043;30;20043;-80
2021/09/15 01:45:04;;;;;;;11.63;4.20;;;;;;;10.87;100.00;101638.22;4791797;29;20046;-80
2021/09/15 01:47:29;;;;;;;8.40;4.03;;;;;;;10.99;100.00;101654.78;4796026;29;20039;-81
2021/09/15 01:49:55;;;;;;;9.50;4.07;;;;;;;11.00;100.00;101654.63;4791183;29;20039;-80
2021/09/15 01:52:20;;;;;;;11.55;3.83;;;;;;;10.94;100.00;101638.34;4784906;30;20382;-81
2021/09/15 01:54:46;;;;;;;11.90;4.10;;;;;;;11.04;100.00;101650.53;4791013;30;20059;-80
2021/09/15 01:57:12;;;;;;;13.63;4.10;;;;;;;11.05;100.00;101654.06;4761781;30;20371;-80
2021/09/15 01:59:37;;;;;;;8.07;3.75;;;;;;;11.00;100.00;101640.31;4793169;29;20443;-81
2021/09/15 02:02:03;;;;;;;5.50;3.30;;;;;;;10.97;100.00;101629.91;4792458;29;20024;-81
2021/09/15 02:04:28;;;;;;;13.38;3.80;;;;;;;11.09;100.00;101638.38;4778305;30;20039;-80
2021/09/15 02:06:55;;;;;;;8.00;4.03;;;;;;;11.11;100.00;101642.56;4794080;30;20519;-81
2021/09/15 02:09:20;;;;;;;13.35;3.95;;;;;;;11.04;100.00;101622.78;4809368;29;20031;-81
2021/09/15 02:11:46;;;;;;;7.90;3.88;;;;;;;11.03;100.00;101619.25;4813545;29;20477;-80
2021/09/15 02:14:13;;;;;;;6.18;3.70;;;;;;;11.15;100.00;101646.56;4798113;30;20475;-79
2021/09/15 02:16:40;;;;;;;10.07;3.75;;;;;;;10.98;100.00;101615.41;4799156;30;20028;-81
2021/09/15 02:19:05;;;;;;;8.07;3.63;;;;;;;11.17;100.00;101643.69;4799082;29;20054;-81
2021/09/15 02:21:31;;;;;;;9.82;4.05;;;;;;;11.03;100.00;101621.09;4796413;30;20512;-81
2021/09/15 02:23:57;;;;;;;9.48;3.60;;;;;;;11.20;100.00;101646.88;4791958;30;20038;-81
2021/09/15 02:26:23;;;;;;;9.60;3.55;;;;;;;11.12;100.00;101633.44;4793561;29;20534;-81
2021/09/15 02:28:48;;;;;;;7.03;4.13;;;;;;;11.16;100.00;101639.31;4790352;29;20042;-80
2021/09/15 02:31:14;;;;;;;9.23;4.15;;;;;;;11.20;100.00;101641.47;4784969;30;20063;-80
2021/09/15 02:33:40;;;;;;;8.32;3.75;;;;;;;11.17;100.00;101630.22;4775574;30;20039;-80
2021/09/15 02:36:05;;;;;;;7.85;4.15;;;;;;;11.19;100.00;101638.94;4790351;30;20027;-80
2021/09/15 02:38:30;;;;;;;7.93;3.70;;;;;;;11.18;100.00;101640.81;4775502;30;20527;-80
2021/09/15 02:40:56;;;;;;;13.25;3.92;;;;;;;11.17;100.00;101639.16;4772719;30;20039;-80
2021/09/15 02:43:22;;;;;;;10.90;3.70;;;;;;;11.19;100.00;101634.44;4805548;29;20038;-81
2021/09/15 02:45:47;;;;;;;8.95;3.70;;;;;;;11.20;100.00;101636.09;4789361;29;20054;-80
2021/09/15 02:48:13;;;;;;;8.00;3.47;;;;;;;11.21;100.00;101631.53;4790077;29;20348;-80
2021/09/15 02:50:38;;;;;;;10.13;3.70;;;;;;;11.19;100.00;101633.56;4774842;30;20065;-80
2021/09/15 02:53:04;;;;;;;4.95;3.80;;;;;;;11.08;100.00;101625.94;4790518;30;20130;-80
2021/09/15 02:55:29;;;;;;;11.82;4.55;;;;;;;11.13;100.00;101623.53;4791024;29;20118;-80
2021/09/15 02:57:55;;;;;;;10.05;3.83;;;;;;;11.13;100.00;101620.84;4774902;30;20031;-80
2021/09/15 03:00:20;;;;;;;11.90;3.70;;;;;;;11.12;100.00;101617.28;4793143;30;20039;-80
2021/09/15 03:02:46;;;;;;;9.82;3.70;;;;;;;11.15;100.00;101624.19;4785752;30;20035;-80
2021/09/15 03:05:13;;;;;;;14.52;4.03;;;;;;;11.16;100.00;101629.41;4789796;30;20433;-80
2021/09/15 03:07:38;;;;;;;10.20;3.60;;;;;;;11.15;100.00;101622.31;4778428;30;20055;-80
2021/09/15 03:10:06;;;;;;;8.57;3.60;;;;;;;11.18;100.00;101613.88;4758063;30;20039;-80
2021/09/15 03:12:31;;;;;;;9.88;3.97;;;;;;;11.18;100.00;101619.25;4757557;30;20426;-80
2021/09/15 03:14:57;;;;;;;9.90;4.18;;;;;;;11.12;100.00;101611.06;4774590;30;20032;-80
2021/09/15 03:17:22;;;;;;;9.30;3.50;;;;;;;11.19;100.00;101620.97;4783926;30;20081;-79
2021/09/15 03:19:48;;;;;;;9.85;3.70;;;;;;;11.21;100.00;101618.91;4789475;30;20073;-80
2021/09/15 03:22:13;;;;;;;7.97;3.75;;;;;;;11.22;100.00;101617.88;4787160;30;20035;-80
2021/09/15 03:24:38;;;;;;;8.60;3.30;;;;;;;11.20;100.00;101606.44;4778089;30;20035;-80
2021/09/15 03:27:04;;;;;;;10.40;4.03;;;;;;;11.15;100.00;101595.38;4789995;29;20035;-80
2021/09/15 03:29:31;;;;;;;7.50;3.47;;;;;;;11.20;100.00;101609.16;4786030;30;20041;-81
2021/09/15 03:31:57;;;;;;;7.35;3.72;;;;;;;11.05;100.00;101590.25;4788693;30;20047;-80
2021/09/15 03:34:22;;;;;;;8.77;3.70;;;;;;;11.11;100.00;101593.25;4788919;30;20495;-80
2021/09/15 03:36:48;;;;;;;8.25;4.00;;;;;;;11.19;100.00;101607.50;4773107;30;20118;-80
2021/09/15 03:39:14;;;;;;;7.13;3.50;;;;;;;11.14;100.00;101603.66;4774329;30;20043;-80
2021/09/15 03:41:41;;;;;;;7.78;3.53;;;;;;;11.21;100.00;101616.19;4772317;30;20126;-80
2021/09/15 03:44:08;;;;;;;9.13;3.78;;;;;;;11.19;100.00;101615.56;4790113;30;20104;-80
2021/09/15 03:46:34;;;;;;;7.43;3.58;;;;;;;11.13;100.00;101602.81;4773258;30;20078;-80
2021/09/15 03:48:59;;;;;;;7.15;4.00;;;;;;;11.20;100.00;101601.06;4786541;30;20051;-80
2021/09/15 03:51:26;;;;;;;8.70;4.20;;;;;;;11.22;100.00;101604.41;4789265;29;20043;-80
2021/09/15 03:53:52;;;;;;;10.43;3.92;;;;;;;11.24;100.00;101599.66;4786584;29;20473;-80
2021/09/15 03:56:17;;;;;;;11.00;3.75;;;;;;;11.25;100.00;101605.88;4774034;30;20036;-80
2021/09/15 03:58:43;;;;;;;7.72;4.00;;;;;;;11.12;100.00;101581.44;4788143;30;20056;-80
2021/09/15 04:01:10;;;;;;;9.38;4.03;;;;;;;11.05;100.00;101565.19;4771628;30;20465;-80
2021/09/15 04:03:36;;;;;;;6.57;3.70;;;;;;;11.16;100.00;101586.31;4774257;30;20078;-81
2021/09/15 04:06:02;;;;;;;12.20;4.28;;;;;;;10.33;100.00;101450.81;5053042;24;20040;-83
2021/09/15 04:08:29;;;;;;;6.20;4.25;;;;;;;11.33;100.00;101599.59;5200529;24;20087;-84
2021/09/15 04:13:30;;;;;;;8.85;4.18;;;;;;;11.32;100.00;101596.03;4982988;24;20059;-82
2021/09/15 04:18:31;;;;;;;5.82;3.90;;;;;;;11.29;100.00;101585.63;5309304;24;20546;-79
2021/09/15 04:20:56;;;;;;;8.52;3.50;;;;;;;11.31;100.00;101588.16;4810920;29;20031;-80
2021/09/15 04:33:42;;;;;;;13.18;3.70;;;;;;;11.41;100.00;101592.25;4807823;29;20054;-80
2021/09/15 04:36:08;;;;;;;8.68;3.97;;;;;;;11.42;100.00;101599.34;4791774;29;20049;-79
2021/09/15 04:38:34;;;;;;;9.45;3.40;;;;;;;11.42;100.00;101598.47;4791887;29;20049;-79
2021/09/15 04:41:01;;;;;;;9.77;3.88;;;;;;;11.44;100.00;101593.75;4776343;29;20050;-79
2021/09/15 04:43:27;;;;;;;8.18;3.88;;;;;;;11.47;100.00;101604.16;4790134;29;20117;-79
2021/09/15 04:45:52;;;;;;;9.73;3.60;;;;;;;11.36;100.00;101586.59;4801843;29;20130;-79
2021/09/15 04:48:17;;;;;;;8.35;3.70;;;;;;;11.47;100.00;101604.16;4804526;29;20052;-79
2021/09/15 04:50:43;;;;;;;8.63;3.50;;;;;;;11.42;100.00;101593.09;4810009;29;20050;-79
2021/09/15 04:53:08;;;;;;;10.00;3.55;;;;;;;11.53;100.00;101606.94;4794035;29;20197;-79
2021/09/15 04:55:34;;;;;;;5.43;3.03;;;;;;;11.54;100.00;101605.09;4823908;29;20061;-79
2021/09/15 04:58:00;;;;;;;6.72;3.35;;;;;;;11.28;100.00;101555.16;4792792;29;20461;-80
2021/09/15 05:00:26;;;;;;;12.90;3.38;;;;;;;11.76;100.00;101587.97;4803390;29;20099;-79
2021/09/15 05:02:51;;;;;;;5.53;3.17;;;;;;;11.91;100.00;101579.88;4803315;29;20051;-79
2021/09/15 05:05:17;;;;;;;6.90;3.38;;;;;;;12.26;100.00;101598.13;4804363;29;20050;-79
2021/09/15 05:07:42;;;;;;;7.97;3.38;;;;;;;12.22;100.00;101603.09;4822338;29;20042;-80
2021/09/15 05:10:08;;;;;;;10.88;3.70;;;;;;;12.08;100.00;101598.53;4802424;29;20126;-79
2021/09/15 05:12:34;;;;;;;8.32;3.60;;;;;;;11.89;100.00;101586.50;4786265;29;20122;-79
2021/09/15 05:14:59;;;;;;;6.60;3.08;;;;;;;11.92;100.00;101597.75;4802415;29;20157;-79
2021/09/15 05:17:25;;;;;;;7.28;3.03;;;;;;;11.92;100.00;101599.59;4818169;29;20117;-79
2021/09/15 05:19:51;;;;;;;8.80;3.30;;;;;;;11.90;100.00;101590.88;4804686;29;20042;-79
2021/09/15 05:22:17;;;;;;;8.13;3.00;;;;;;;11.93;100.00;101598.59;4811299;29;20047;-80
2021/09/15 05:24:43;;;;;;;13.20;3.30;;;;;;;11.95;100.00;101604.59;4843078;29;20054;-79
2021/09/15 05:27:09;;;;;;;5.97;2.85;;;;;;;11.96;100.00;101600.91;4842762;29;20041;-80
2021/09/15 05:29:34;;;;;;;10.07;3.20;;;;;;;11.99;100.00;101603.22;4823280;29;20121;-80
2021/09/15 05:32:00;;;;;;;7.18;3.10;;;;;;;12.04;100.00;101599.94;4805054;29;20046;-79
2021/09/15 05:34:25;;;;;;;8.85;3.03;;;;;;;11.98;100.00;101594.28;4826615;29;20377;-80
2021/09/15 05:36:51;;;;;;;9.40;2.85;;;;;;;12.02;100.00;101592.06;4809980;29;20034;-79
2021/09/15 05:39:16;;;;;;;9.90;2.53;;;;;;;12.17;100.00;101597.41;4824095;29;20098;-78
2021/09/15 05:41:42;;;;;;;6.50;2.58;;;;;;;12.20;100.00;101595.16;4812239;29;20100;-79
2021/09/15 05:44:07;;;;;;;8.23;2.83;;;;;;;12.20;100.00;101586.25;4820557;29;20054;-79
2021/09/15 05:46:33;;;;;;;8.10;2.70;;;;;;;12.30;100.00;101599.41;4790509;29;20039;-79
2021/09/15 05:48:58;;;;;;;7.22;2.67;;;;;;;12.31;100.00;101595.69;4824452;29;20055;-80
2021/09/15 05:51:24;;;;;;;8.98;2.75;;;;;;;12.44;100.00;101604.75;4814048;29;20039;-81
2021/09/15 05:53:50;;;;;;;5.93;2.45;;;;;;;12.48;100.00;101599.81;4818122;29;20257;-80
2021/09/15 05:56:16;;;;;;;5.70;2.60;;;;;;;12.52;100.00;101601.13;4807432;29;20072;-80
2021/09/15 05:58:43;;;;;;;6.15;2.30;;;;;;;12.59;100.00;101606.59;4833556;29;20038;-82
2021/09/15 06:01:08;;;;;;;9.80;2.60;;;;;;;12.55;100.00;101589.94;4810838;29;20447;-80
2021/09/15 06:03:34;;;;;;;4.90;2.33;;;;;;;12.62;100.00;101614.31;4808121;29;20031;-80
2021/09/15 06:05:59;;;;;;;7.53;2.33;;;;;;;12.63;100.00;101600.59;4812968;29;20034;-80
2021/09/15 06:08:24;;;;;;;9.35;2.42;;;;;;;12.77;100.00;101614.22;4812003;29;20683;-80
2021/09/15 06:10:50;;;;;;;7.45;2.60;;;;;;;12.75;100.00;101606.31;4784011;29;20034;-80
2021/09/15 06:13:16;;;;;;;10.27;2.88;;;;;;;12.78;100.00;101605.06;4829732;29;20034;-80
2021/09/15 06:15:42;;;;;;;7.95;2.35;;;;;;;12.91;100.00;101618.69;4810256;29;20366;-80
2021/09/15 06:18:26;;;;;;;8.40;2.58;;;;;;;12.98;100.00;101618.75;4827864;29;20119;-80
2021/09/15 06:20:51;;;;;;;11.35;2.60;;;;;;;12.97;100.00;101614.38;4816463;29;20449;-80
2021/09/15 06:23:17;;;;;;;10.68;2.60;;;;;;;13.05;100.00;101615.09;4813457;29;20039;-79
2021/09/15 06:25:42;;;;;;;7.70;2.38;;;;;;;13.09;100.00;101620.94;4810439;29;20200;-80
2021/09/15 06:28:08;;;;;;;10.10;2.90;;;;;;;13.08;100.00;101614.72;4805357;29;20374;-80
2021/09/15 06:30:35;;;;;;;9.65;2.67;;;;;;;13.04;100.00;101601.75;4798794;29;20114;-79
2021/09/15 06:33:00;;;;;;;10.27;2.65;;;;;;;13.16;100.00;101619.94;4816697;29;20438;-80
2021/09/15 06:35:27;;;;;;;12.50;2.85;;;;;;;13.18;100.00;101627.88;4800281;29;20060;-79
2021/09/15 06:37:52;;;;;;;9.88;2.80;;;;;;;13.09;100.00;101613.66;4799445;29;20046;-79
2021/09/15 06:40:19;;;;;;;10.80;2.75;;;;;;;13.19;100.00;101620.59;4826626;29;20038;-79
2021/09/15 06:42:44;;;;;;;9.80;2.90;;;;;;;12.93;100.00;101574.25;4822340;29;20038;-79
2021/09/15 06:45:11;;;;;;;9.00;2.60;;;;;;;13.28;100.00;101616.75;4822634;29;20035;-79
2021/09/15 06:47:45;;;;;;;10.02;3.03;;;;;;;13.25;100.00;101619.84;4811105;29;20111;-79
2021/09/15 06:50:13;;;;;;;9.27;2.90;;;;;;;13.24;100.00;101610.88;4807728;29;20027;-79
2021/09/15 06:52:39;;;;;;;8.32;3.10;;;;;;;13.23;100.00;101617.31;4810921;29;20035;-79
2021/09/15 06:55:06;;;;;;;5.43;2.60;;;;;;;13.22;100.00;101607.53;4793134;29;20047;-79
2021/09/15 06:57:31;;;;;;;10.00;3.65;;;;;;;13.29;100.00;101603.03;4810698;29;20030;-79
2021/09/15 07:00:05;;;;;;;8.23;2.95;;;;;;;13.31;99.42;101605.53;4808465;29;20046;-78
2021/09/15 07:02:31;;;;;;;5.88;2.80;;;;;;;13.34;99.86;101592.47;4808731;29;20038;-79
2021/09/15 07:04:56;;;;;;;7.10;2.75;;;;;;;13.49;99.78;101599.63;4820536;29;20365;-78
2021/09/15 07:07:22;;;;;;;8.05;2.78;;;;;;;13.59;99.79;101602.81;4791265;29;20042;-79
2021/09/15 07:09:48;;;;;;;6.93;2.85;;;;;;;13.62;99.76;101614.06;4812197;29;20027;-79
2021/09/15 07:12:13;;;;;;;6.32;2.60;;;;;;;13.61;99.94;101596.16;4811973;29;20568;-78
2021/09/15 07:14:39;;;;;;;6.15;2.70;;;;;;;13.70;99.98;101606.81;4774437;29;20462;-79
2021/09/15 07:17:06;;;;;;;5.63;2.97;;;;;;;13.65;99.70;101595.78;4803940;29;20553;-78
2021/09/15 07:19:31;;;;;;;8.82;2.80;;;;;;;13.60;100.00;101591.78;4791415;29;20051;-80
2021/09/15 07:21:57;;;;;;;8.45;3.10;;;;;;;13.60;99.51;101590.94;4787314;29;20378;-79
2021/09/15 07:24:22;;;;;;;6.88;3.30;;;;;;;12.78;99.44;101445.75;4770796;29;20196;-79
2021/09/15 07:26:47;;;;;;;7.97;2.95;;;;;;;13.69;99.89;101600.56;4774273;29;20382;-78
2021/09/15 07:29:13;;;;;;;6.15;2.70;;;;;;;13.77;99.53;101599.56;4773003;29;20439;-79
2021/09/15 07:31:39;;;;;;;7.78;2.40;;;;;;;13.77;99.43;101577.91;4773577;29;20043;-79
2021/09/15 07:34:05;;;;;;;5.88;2.47;;;;;;;13.89;99.56;101594.41;4789042;29;20046;-79
2021/09/15 07:36:33;;;;;;;6.22;2.38;;;;;;;13.73;99.13;101569.38;4795874;29;20042;-79
2021/09/15 07:38:59;;;;;;;7.80;2.50;;;;;;;13.93;98.86;101577.56;4800969;29;20034;-79
2021/09/15 07:41:25;;;;;;;5.80;2.42;;;;;;;14.01;98.58;101574.69;4807494;29;20030;-79
2021/09/15 07:43:51;;;;;;;7.35;2.40;;;;;;;14.21;98.23;101584.75;4781359;30;20080;-79
2021/09/15 07:46:21;;;;;;;7.80;2.25;;;;;;;14.37;98.01;101588.94;4789792;29;20127;-79
2021/09/15 07:48:46;;;;;;;6.00;2.10;;;;;;;14.44;97.83;101596.06;4768518;30;20422;-79
2021/09/15 07:51:12;;;;;;;6.53;2.30;;;;;;;14.48;97.37;101581.06;4780890;30;20035;-79
2021/09/15 07:53:37;;;;;;;5.32;2.00;;;;;;;14.73;96.64;101592.16;4787847;30;20027;-80
2021/09/15 07:56:03;;;;;;;7.57;2.10;;;;;;;14.76;96.57;101580.06;4787823;30;20077;-79
2021/09/15 07:58:28;;;;;;;4.72;2.20;;;;;;;14.96;96.07;101588.19;4774255;29;20116;-79
2021/09/15 08:00:54;;;;;;;5.75;2.00;;;;;;;15.21;95.70;101605.50;4765305;29;20043;-80
2021/09/15 08:03:19;;;;;;;5.15;2.00;;;;;;;15.25;95.61;101595.88;4788705;30;20031;-80
2021/09/15 08:05:44;;;;;;;5.63;2.30;;;;;;;15.41;94.75;101591.06;4788911;30;20471;-79
2021/09/15 08:08:12;;;;;;;7.55;2.17;;;;;;;15.63;93.86;101603.34;4786900;30;20035;-79
2021/09/15 08:10:38;;;;;;;7.07;2.10;;;;;;;15.72;92.89;101593.09;4804035;29;20030;-79
2021/09/15 08:13:04;;;;;;;7.05;1.98;;;;;;;15.66;92.60;101588.50;4790852;29;20054;-79
2021/09/15 08:15:31;;;;;;;10.15;2.45;;;;;;;15.80;92.88;101584.75;4758887;30;20047;-79
2021/09/15 08:17:57;;;;;;;5.00;2.10;;;;;;;15.80;91.94;101609.16;4786302;29;20138;-80
2021/09/15 08:20:23;;;;;;;8.43;2.42;;;;;;;15.59;91.62;101584.97;4796381;29;20541;-80
2021/09/15 08:22:48;;;;;;;5.82;2.15;;;;;;;15.68;91.94;101606.25;4788593;30;20042;-79
2021/09/15 08:25:13;;;;;;;7.03;2.17;;;;;;;15.56;91.84;101577.25;4787369;29;20039;-79
2021/09/15 08:27:39;;;;;;;7.22;2.20;;;;;;;15.78;91.44;101602.28;4789089;29;20457;-79
2021/09/15 08:30:05;;;;;;;4.55;1.90;;;;;;;15.73;91.52;101586.66;4785208;29;20101;-79
2021/09/15 08:32:30;;;;;;;6.93;2.00;;;;;;;15.59;91.02;101542.41;4815814;29;20122;-79
2021/09/15 08:34:56;;;;;;;4.30;1.83;;;;;;;15.93;91.37;101606.41;4799534;29;20131;-80
2021/09/15 08:37:21;;;;;;;6.13;1.85;;;;;;;16.03;91.04;101605.13;4800528;29;20035;-80
2021/09/15 08:39:46;;;;;;;4.35;1.92;;;;;;;16.04;91.03;101599.44;4798636;29;20092;-80
2021/09/15 08:42:13;;;;;;;3.92;1.75;;;;;;;16.02;90.51;101601.53;4785159;30;20462;-79
2021/09/15 08:44:38;;;;;;;7.72;2.00;;;;;;;15.95;90.32;101571.72;4814951;29;20140;-79
2021/09/15 08:47:06;;;;;;;6.30;2.20;;;;;;;15.97;90.16;101572.34;4786358;29;20035;-80
2021/09/15 08:49:33;;;;;;;4.38;1.80;;;;;;;16.20;89.74;101596.25;4800377;29;20454;-80
2021/09/15 08:51:58;;;;;;;4.93;1.95;;;;;;;16.38;89.95;101594.66;4816025;29;20133;-79
2021/09/15 08:54:24;;;;;;;5.53;1.90;;;;;;;16.54;89.38;101599.59;4785347;30;20118;-79
2021/09/15 08:56:50;;;;;;;8.55;2.10;;;;;;;16.52;89.58;101589.97;4785178;29;20042;-79
2021/09/15 08:59:15;;;;;;;4.35;1.88;;;;;;;16.43;88.76;101565.81;4817837;29;20047;-80
2021/09/15 09:01:44;;;;;;;6.65;1.98;;;;;;;16.33;88.36;101592.63;4817089;29;20059;-80
2021/09/15 09:04:13;;;;;;;5.55;1.98;;;;;;;16.41;88.75;101589.63;4784768;29;20052;-79
2021/09/15 09:06:39;;;;;;;5.95;1.90;;;;;;;16.39;88.32;101564.59;4799081;29;20047;-79
2021/09/15 09:09:05;;;;;;;4.07;1.70;;;;;;;16.41;87.84;101595.06;4770170;30;20068;-79
2021/09/15 09:11:33;;;;;;;5.20;1.98;;;;;;;16.49;87.72;101591.28;4799491;29;20047;-80
2021/09/15 09:14:10;;;;;;;5.32;1.50;;;;;;;16.66;87.45;101591.56;4798910;29;20059;-80
2021/09/15 09:16:42;;;;;;;3.95;1.88;;;;;;;16.53;87.04;101557.19;4802075;29;20048;-80
2021/09/15 09:19:10;;;;;;;7.80;2.03;;;;;;;16.64;86.52;101585.50;4801505;29;20047;-79
2021/09/15 09:21:38;;;;;;;5.75;1.90;;;;;;;16.70;86.38;101581.91;4803284;29;20027;-80
2021/09/15 09:24:07;;;;;;;6.82;1.80;;;;;;;16.66;86.54;101576.09;4802745;29;20027;-79
2021/09/15 09:26:49;;;;;;;6.55;1.85;;;;;;;16.60;86.20;101576.97;4806406;29;20027;-81
2021/09/15 09:29:21;;;;;;;5.20;1.70;;;;;;;16.55;87.05;101552.34;4807945;29;20043;-79
2021/09/15 09:31:54;;;;;;;6.88;2.25;;;;;;;16.62;85.81;101574.03;4788650;29;20027;-79
2021/09/15 09:34:20;;;;;;;4.28;1.80;;;;;;;16.66;85.00;101572.56;4793677;29;20438;-80
2021/09/15 09:36:59;;;;;;;3.65;1.60;;;;;;;16.72;84.82;101565.38;4789861;29;20055;-80
2021/09/15 09:39:39;;;;;;;5.18;1.83;;;;;;;16.77;84.08;101563.69;4803456;29;20514;-79
2021/09/15 09:42:27;;;;;;;5.50;1.90;;;;;;;16.84;84.93;101566.38;4807707;29;20051;-80
2021/09/15 09:44:54;;;;;;;7.25;1.85;;;;;;;16.57;83.86;101539.38;4807144;29;20043;-81
2021/09/15 09:47:23;;;;;;;6.05;1.75;;;;;;;16.75;83.69;101557.66;4803031;29;20130;-80
2021/09/15 09:49:59;;;;;;;5.32;1.83;;;;;;;16.70;81.63;101548.47;4818895;29;20526;-80
2021/09/15 09:52:25;;;;;;;5.15;1.85;;;;;;;16.68;82.70;101529.66;4812620;29;20073;-80
2021/09/15 09:55:01;;;;;;;5.63;1.65;;;;;;;16.80;82.62;101536.09;4810013;29;20027;-79
2021/09/15 09:57:27;;;;;;;3.55;1.70;;;;;;;16.98;82.20;101554.31;4808566;29;20034;-82
2021/09/15 09:59:54;;;;;;;5.65;1.83;;;;;;;16.88;82.11;101537.69;4836883;29;20064;-82
2021/09/15 10:02:20;;;;;;;3.75;1.73;;;;;;;17.00;82.54;101556.81;4994225;24;20087;-80
2021/09/15 10:05:02;;;;;;;3.42;1.60;;;;;;;17.12;82.02;101557.75;4856874;29;20422;-81
2021/09/15 10:07:28;;;;;;;4.75;1.63;;;;;;;17.04;82.29;101563.47;4854464;29;20026;-81
2021/09/15 10:09:54;;;;;;;4.70;1.55;;;;;;;16.98;82.14;101548.03;4844546;29;20048;-80
2021/09/15 10:12:20;;;;;;;5.10;1.63;;;;;;;16.98;82.51;101535.28;4866407;29;20037;-80
2021/09/15 10:14:46;;;;;;;3.47;1.60;;;;;;;17.10;82.33;101528.06;4835641;29;20037;-81
2021/09/15 10:17:15;;;;;;;2.60;1.48;;;;;;;17.21;81.33;101528.38;4867416;29;20042;-81
2021/09/15 10:19:53;;;;;;;3.97;1.50;;;;;;;17.25;80.22;101538.59;4865461;29;20047;-81
2021/09/15 10:22:30;;;;;;;4.70;1.50;;;;;;;17.32;79.23;101535.78;4859867;29;20030;-82
2021/09/15 10:24:58;;;;;;;4.22;1.38;;;;;;;17.42;80.06;101535.25;4868971;29;20033;-81
2021/09/15 10:27:51;;;;;;;4.07;1.70;;;;;;;17.48;79.58;101537.06;4851515;29;20010;-81
2021/09/15 10:30:17;;;;;;;4.93;1.70;;;;;;;17.63;79.34;101526.63;4866967;29;20044;-82
2021/09/15 10:32:48;;;;;;;6.57;1.50;;;;;;;17.60;77.30;101537.97;4852328;29;20020;-81
2021/09/15 10:35:15;;;;;;;3.65;1.33;;;;;;;17.71;77.63;101529.03;4849640;29;20089;-81
2021/09/15 10:37:40;;;;;;;5.90;1.30;;;;;;;17.84;77.10;101523.44;4851220;29;20078;-81
2021/09/15 10:40:11;;;;;;;8.23;1.48;;;;;;;17.69;75.85;101525.72;4867614;29;20037;-81
2021/09/15 10:42:46;;;;;;;2.50;1.30;;;;;;;17.72;76.14;101508.94;4853125;29;20015;-82
2021/09/15 10:45:21;;;;;;;3.90;1.30;;;;;;;17.77;76.04;101522.69;4866477;29;20073;-83
2021/09/15 10:50:28;;;;;;;3.97;1.40;;;;;;;18.05;73.95;101529.47;5498950;24;20055;-83
2021/09/15 10:53:12;;;;;;;2.83;1.17;;;;;;;17.25;74.43;101334.59;4830598;29;20019;-82
2021/09/15 10:55:45;;;;;;;3.42;1.20;;;;;;;18.43;73.03;101525.53;4829355;29;20059;-82
2021/09/15 10:58:25;;;;;;;5.65;1.20;;;;;;;18.23;73.55;101509.50;4826843;29;20019;-81
2021/09/15 11:00:52;;;;;;;2.50;1.30;;;;;;;17.08;73.72;101352.59;4824459;29;20042;-81
2021/09/15 11:03:32;;;;;;;2.28;1.10;;;;;;;18.23;73.31;101523.13;4825514;29;20043;-81
2021/09/15 11:06:21;;;;;;;3.67;1.25;;;;;;;17.73;73.11;101423.47;4814284;29;20080;-83
2021/09/15 11:08:51;;;;;;;2.15;1.42;;;;;;;17.40;72.49;101368.69;4827172;29;20046;-81
2021/09/15 11:14:13;;;;;;;3.85;1.00;;;;;;;18.36;72.57;101533.00;5098207;24;20049;-83
2021/09/15 11:16:46;;;;;;;2.47;1.10;;;;;;;17.14;72.49;101310.88;4811646;29;20018;-81
2021/09/15 11:19:31;;;;;;;2.90;1.10;;;;;;;18.74;70.77;101510.78;4797075;29;20115;-81
2021/09/15 11:21:59;;;;;;;2.38;1.40;;;;;;;18.41;71.64;101448.63;4813366;29;20015;-82
2021/09/15 11:24:31;;;;;;;3.55;1.42;;;;;;;18.22;71.66;101396.16;4813182;29;20038;-81
2021/09/15 11:27:05;;;;;;;1.63;1.10;;;;;;;18.42;71.49;101404.81;4807570;29;20050;-81
2021/09/15 11:29:38;;;;;;;;;;;;;;;18.75;70.60;101499.66;4818293;29;20035;-80
2021/09/15 11:32:07;;;;;;;2.00;1.00;;;;;;;19.06;71.65;101494.06;4796004;29;19922;-83
2021/09/15 11:34:38;;;;;;;3.65;1.10;;;;;;;17.69;71.54;101312.59;4814349;29;20036;-83
2021/09/15 11:37:04;;;;;;;3.42;1.05;;;;;;;18.24;71.97;101400.28;4814542;29;20011;-83
2021/09/15 11:39:29;;;;;;;2.13;1.10;;;;;;;18.77;71.51;101485.78;4928591;24;20123;-80